sensor_id;sensor_type;location;lat;lon;timestamp;pressure;altitude;pressure_sealevel;temperature;humidity
61474;BME280;53694;49.784;30.150;2024-02-14T00:00:46;99103.44;;;12.18;69.31
61474;BME280;53694;49.784;30.150;2024-02-14T00:01:47;99109.23;;;11.98;69.66
61474;BME280;53694;49.784;30.150;2024-02-14T00:02:49;99116.42;;;11.66;70.36
61474;BME280;53694;49.784;30.150;2024-02-14T00:03:50;99115.30;;;11.26;71.65
61474;BME280;53694;49.784;30.150;2024-02-14T00:04:54;99115.66;;;10.87;72.94
61474;BME280;53694;49.784;30.150;2024-02-14T00:05:56;99109.42;;;10.57;74.28
61474;BME280;53694;49.784;30.150;2024-02-14T00:06:58;99111.22;;;10.42;75.14
61474;BME280;53694;49.784;30.150;2024-02-14T00:07:59;99117.45;;;10.39;75.63
61474;BME280;53694;49.784;30.150;2024-02-14T00:09:01;99113.58;;;10.43;75.72
61474;BME280;53694;49.784;30.150;2024-02-14T00:10:03;99111.34;;;10.53;75.92
61474;BME280;53694;49.784;30.150;2024-02-14T00:11:04;99109.14;;;10.65;75.82
61474;BME280;53694;49.784;30.150;2024-02-14T00:12:06;99112.11;;;10.83;75.25
61474;BME280;53694;49.784;30.150;2024-02-14T00:13:07;99116.58;;;10.98;74.80
61474;BME280;53694;49.784;30.150;2024-02-14T00:14:09;99114.70;;;11.06;74.32
61474;BME280;53694;49.784;30.150;2024-02-14T00:15:11;99114.44;;;11.18;74.28
61474;BME280;53694;49.784;30.150;2024-02-14T00:16:13;99115.73;;;11.32;73.85
61474;BME280;53694;49.784;30.150;2024-02-14T00:17:15;99115.46;;;11.44;73.52
61474;BME280;53694;49.784;30.150;2024-02-14T00:18:16;99126.97;;;11.57;73.21
61474;BME280;53694;49.784;30.150;2024-02-14T00:19:18;99120.39;;;11.68;72.91
61474;BME280;53694;49.784;30.150;2024-02-14T00:20:19;99112.62;;;11.81;72.08
61474;BME280;53694;49.784;30.150;2024-02-14T00:21:21;99115.83;;;11.87;70.98
61474;BME280;53694;49.784;30.150;2024-02-14T00:22:23;99117.37;;;11.84;70.80
61474;BME280;53694;49.784;30.150;2024-02-14T00:23:25;99114.20;;;11.82;70.98
61474;BME280;53694;49.784;30.150;2024-02-14T00:24:27;99113.83;;;11.84;71.29
61474;BME280;53694;49.784;30.150;2024-02-14T00:25:30;99107.97;;;11.85;71.06
61474;BME280;53694;49.784;30.150;2024-02-14T00:26:32;99113.47;;;11.89;70.82
61474;BME280;53694;49.784;30.150;2024-02-14T00:27:33;99111.50;;;11.89;70.96
61474;BME280;53694;49.784;30.150;2024-02-14T00:28:35;99109.17;;;11.91;70.95
61474;BME280;53694;49.784;30.150;2024-02-14T00:29:36;99110.38;;;11.97;70.89
61474;BME280;53694;49.784;30.150;2024-02-14T00:30:38;99106.48;;;11.98;70.45
61474;BME280;53694;49.784;30.150;2024-02-14T00:31:39;99112.80;;;12.03;70.66
61474;BME280;53694;49.784;30.150;2024-02-14T00:32:40;99107.30;;;12.06;70.21
61474;BME280;53694;49.784;30.150;2024-02-14T00:33:42;99109.26;;;12.06;69.80
61474;BME280;53694;49.784;30.150;2024-02-14T00:34:43;99107.30;;;12.03;69.96
61474;BME280;53694;49.784;30.150;2024-02-14T00:35:45;99104.52;;;11.99;69.92
61474;BME280;53694;49.784;30.150;2024-02-14T00:36:47;99102.10;;;11.90;69.97
61474;BME280;53694;49.784;30.150;2024-02-14T00:37:48;99118.78;;;11.67;70.59
61474;BME280;53694;49.784;30.150;2024-02-14T00:38:49;99112.25;;;11.38;71.57
61474;BME280;53694;49.784;30.150;2024-02-14T00:39:51;99113.09;;;11.01;72.45
61474;BME280;53694;49.784;30.150;2024-02-14T00:40:52;99106.28;;;10.55;74.98
61474;BME280;53694;49.784;30.150;2024-02-14T00:41:54;99106.28;;;10.55;74.98
61474;BME280;53694;49.784;30.150;2024-02-14T00:42:56;99116.09;;;10.56;75.33
61474;BME280;53694;49.784;30.150;2024-02-14T00:43:57;99119.72;;;10.63;75.32
61474;BME280;53694;49.784;30.150;2024-02-14T00:44:58;99123.36;;;10.74;75.23
61474;BME280;53694;49.784;30.150;2024-02-14T00:46:00;99110.98;;;10.88;74.97
61474;BME280;53694;49.784;30.150;2024-02-14T00:47:02;99111.13;;;11.02;74.38
61474;BME280;53694;49.784;30.150;2024-02-14T00:48:03;99110.03;;;11.10;74.28
61474;BME280;53694;49.784;30.150;2024-02-14T00:49:05;99110.55;;;11.23;73.87
61474;BME280;53694;49.784;30.150;2024-02-14T00:50:07;99117.34;;;11.36;73.72
61474;BME280;53694;49.784;30.150;2024-02-14T00:51:08;99111.97;;;11.50;73.29
61474;BME280;53694;49.784;30.150;2024-02-14T00:52:10;99114.42;;;11.63;72.73
61474;BME280;53694;49.784;30.150;2024-02-14T00:53:11;99107.06;;;11.74;72.05
61474;BME280;53694;49.784;30.150;2024-02-14T00:54:13;99107.88;;;11.78;71.34
61474;BME280;53694;49.784;30.150;2024-02-14T00:55:14;99111.08;;;11.84;71.25
61474;BME280;53694;49.784;30.150;2024-02-14T00:56:16;99104.40;;;11.85;71.07
61474;BME280;53694;49.784;30.150;2024-02-14T00:57:17;99106.81;;;11.90;71.26
61474;BME280;53694;49.784;30.150;2024-02-14T00:58:19;99112.74;;;11.95;70.80
61474;BME280;53694;49.784;30.150;2024-02-14T00:59:21;99108.02;;;11.96;70.17
61474;BME280;53694;49.784;30.150;2024-02-14T01:00:22;99095.42;;;11.91;70.22
61474;BME280;53694;49.784;30.150;2024-02-14T01:01:24;99101.67;;;11.88;70.81
61474;BME280;53694;49.784;30.150;2024-02-14T01:02:26;99100.92;;;11.91;70.59
61474;BME280;53694;49.784;30.150;2024-02-14T01:03:27;99101.67;;;11.88;70.52
61474;BME280;53694;49.784;30.150;2024-02-14T01:04:29;99100.50;;;11.86;70.64
61474;BME280;53694;49.784;30.150;2024-02-14T01:05:30;99100.11;;;11.87;70.84
61474;BME280;53694;49.784;30.150;2024-02-14T01:06:32;99106.00;;;11.89;70.56
61474;BME280;53694;49.784;30.150;2024-02-14T01:07:33;99110.72;;;11.85;70.59
61474;BME280;53694;49.784;30.150;2024-02-14T01:08:35;99106.37;;;11.84;70.83
61474;BME280;53694;49.784;30.150;2024-02-14T01:09:36;99102.86;;;11.87;70.76
61474;BME280;53694;49.784;30.150;2024-02-14T01:10:38;99100.11;;;11.87;70.36
61474;BME280;53694;49.784;30.150;2024-02-14T01:11:39;99100.50;;;11.86;70.69
61474;BME280;53694;49.784;30.150;2024-02-14T01:12:41;99105.61;;;11.87;70.87
61474;BME280;53694;49.784;30.150;2024-02-14T01:13:42;99104.85;;;11.90;70.67
61474;BME280;53694;49.784;30.150;2024-02-14T01:14:44;99109.99;;;11.95;70.64
61474;BME280;53694;49.784;30.150;2024-02-14T01:15:46;99108.81;;;11.96;70.13
61474;BME280;53694;49.784;30.150;2024-02-14T01:16:48;99105.30;;;11.99;70.22
61474;BME280;53694;49.784;30.150;2024-02-14T01:17:49;99101.79;;;12.03;69.80
61474;BME280;53694;49.784;30.150;2024-02-14T01:18:51;99108.05;;;11.99;69.95
61474;BME280;53694;49.784;30.150;2024-02-14T01:19:52;99111.62;;;12.04;70.08
61474;BME280;53694;49.784;30.150;2024-02-14T01:20:54;99110.80;;;11.99;70.00
61474;BME280;53694;49.784;30.150;2024-02-14T01:21:56;99112.66;;;11.85;70.37
61474;BME280;53694;49.784;30.150;2024-02-14T01:22:57;99113.28;;;11.67;70.73
61474;BME280;53694;49.784;30.150;2024-02-14T01:23:58;99113.14;;;11.49;71.06
61474;BME280;53694;49.784;30.150;2024-02-14T01:25:00;99111.78;;;11.29;71.46
61474;BME280;53694;49.784;30.150;2024-02-14T01:26:02;99110.91;;;11.18;72.29
61474;BME280;53694;49.784;30.150;2024-02-14T01:27:03;99110.47;;;11.16;72.62
61474;BME280;53694;49.784;30.150;2024-02-14T01:28:05;99110.13;;;11.21;72.44
61474;BME280;53694;49.784;30.150;2024-02-14T01:29:06;99105.09;;;11.26;72.24
61474;BME280;53694;49.784;30.150;2024-02-14T01:30:09;99110.64;;;11.34;72.04
61474;BME280;53694;49.784;30.150;2024-02-14T01:31:11;99113.07;;;11.42;72.14
61474;BME280;53694;49.784;30.150;2024-02-14T01:32:12;99106.07;;;11.48;71.71
61474;BME280;53694;49.784;30.150;2024-02-14T01:33:14;99106.89;;;11.53;71.73
61474;BME280;53694;49.784;30.150;2024-02-14T01:34:15;99099.86;;;11.59;71.25
61474;BME280;53694;49.784;30.150;2024-02-14T01:35:17;99102.25;;;11.64;70.75
61474;BME280;53694;49.784;30.150;2024-02-14T01:36:18;99103.81;;;11.61;70.80
61474;BME280;53694;49.784;30.150;2024-02-14T01:37:20;99105.00;;;11.60;70.84
61474;BME280;53694;49.784;30.150;2024-02-14T01:38:21;99109.31;;;11.61;71.15
61474;BME280;53694;49.784;30.150;2024-02-14T01:39:23;99112.89;;;11.65;71.17
61474;BME280;53694;49.784;30.150;2024-02-14T01:40:24;99103.88;;;11.68;70.85
61474;BME280;53694;49.784;30.150;2024-02-14T01:41:26;99106.64;;;11.72;70.49
61474;BME280;53694;49.784;30.150;2024-02-14T01:42:27;99105.45;;;11.69;70.34
61474;BME280;53694;49.784;30.150;2024-02-14T01:43:29;99109.34;;;11.65;70.50
61474;BME280;53694;49.784;30.150;2024-02-14T01:44:31;99106.95;;;11.60;70.47
61474;BME280;53694;49.784;30.150;2024-02-14T01:45:32;99108.46;;;11.54;70.83
61474;BME280;53694;49.784;30.150;2024-02-14T01:46:34;99111.18;;;11.50;71.13
61474;BME280;53694;49.784;30.150;2024-02-14T01:47:36;99107.25;;;11.51;71.49
61474;BME280;53694;49.784;30.150;2024-02-14T01:48:38;99110.82;;;11.55;71.06
61474;BME280;53694;49.784;30.150;2024-02-14T01:49:41;99113.17;;;11.53;70.92
61474;BME280;53694;49.784;30.150;2024-02-14T01:50:43;99109.22;;;11.50;71.32
61474;BME280;53694;49.784;30.150;2024-02-14T01:51:46;99114.72;;;11.50;71.06
61474;BME280;53694;49.784;30.150;2024-02-14T01:52:47;99110.39;;;11.49;71.15
61474;BME280;53694;49.784;30.150;2024-02-14T01:53:49;99110.00;;;11.47;71.22
61474;BME280;53694;49.784;30.150;2024-02-14T01:54:53;99117.46;;;11.47;71.06
61474;BME280;53694;49.784;30.150;2024-02-14T01:55:56;99108.75;;;11.41;71.34
61474;BME280;53694;49.784;30.150;2024-02-14T01:56:58;99113.84;;;11.39;71.32
61474;BME280;53694;49.784;30.150;2024-02-14T01:58:01;99109.84;;;11.33;71.41
61474;BME280;53694;49.784;30.150;2024-02-14T01:59:03;99109.84;;;11.33;71.72
61474;BME280;53694;49.784;30.150;2024-02-14T02:00:06;99119.27;;;11.32;71.84
61474;BME280;53694;49.784;30.150;2024-02-14T02:01:08;99115.31;;;11.30;71.68
61474;BME280;53694;49.784;30.150;2024-02-14T02:02:10;99108.24;;;11.29;72.05
61474;BME280;53694;49.784;30.150;2024-02-14T02:03:12;99112.20;;;11.31;72.39
61474;BME280;53694;49.784;30.150;2024-02-14T02:04:14;99104.36;;;11.33;71.70
61474;BME280;53694;49.784;30.150;2024-02-14T02:05:15;99114.20;;;11.34;72.05
61474;BME280;53694;49.784;30.150;2024-02-14T02:06:17;99114.59;;;11.36;71.85
61474;BME280;53694;49.784;30.150;2024-02-14T02:07:19;99113.03;;;11.35;71.76
61474;BME280;53694;49.784;30.150;2024-02-14T02:08:21;99113.03;;;11.35;71.97
61474;BME280;53694;49.784;30.150;2024-02-14T02:09:23;99114.25;;;11.41;71.73
61474;BME280;53694;49.784;30.150;2024-02-14T02:10:24;99115.07;;;11.45;71.59
61474;BME280;53694;49.784;30.150;2024-02-14T02:11:26;99122.57;;;11.48;71.58
61474;BME280;53694;49.784;30.150;2024-02-14T02:12:28;99119.39;;;11.46;71.63
61474;BME280;53694;49.784;30.150;2024-02-14T02:13:29;99124.53;;;11.48;71.64
61474;BME280;53694;49.784;30.150;2024-02-14T02:14:31;99114.72;;;11.50;71.50
61474;BME280;53694;49.784;30.150;2024-02-14T02:15:32;99116.75;;;11.57;71.75
61474;BME280;53694;49.784;30.150;2024-02-14T02:16:34;99118.75;;;11.64;71.24
61474;BME280;53694;49.784;30.150;2024-02-14T02:17:36;99112.50;;;11.67;71.01
61474;BME280;53694;49.784;30.150;2024-02-14T02:18:37;99111.34;;;11.71;70.78
61474;BME280;53694;49.784;30.150;2024-02-14T02:19:39;99110.20;;;11.72;70.27
61474;BME280;53694;49.784;30.150;2024-02-14T02:20:41;99119.57;;;11.68;70.05
61474;BME280;53694;49.784;30.150;2024-02-14T02:21:42;99113.61;;;11.59;70.21
61474;BME280;53694;49.784;30.150;2024-02-14T02:22:47;99110.81;;;11.51;70.56
61474;BME280;53694;49.784;30.150;2024-02-14T02:23:49;99117.03;;;11.45;70.60
61474;BME280;53694;49.784;30.150;2024-02-14T02:24:50;99121.32;;;11.42;71.18
61474;BME280;53694;49.784;30.150;2024-02-14T02:25:52;99122.92;;;11.43;71.42
61474;BME280;53694;49.784;30.150;2024-02-14T02:26:53;99117.82;;;11.45;71.14
61474;BME280;53694;49.784;30.150;2024-02-14T02:27:55;99113.89;;;11.43;71.26
61474;BME280;53694;49.784;30.150;2024-02-14T02:28:56;99121.36;;;11.46;71.29
61474;BME280;53694;49.784;30.150;2024-02-14T02:29:58;99120.21;;;11.47;71.22
61474;BME280;53694;49.784;30.150;2024-02-14T02:31:00;99121.75;;;11.44;70.57
61474;BME280;53694;49.784;30.150;2024-02-14T02:32:01;99125.20;;;11.38;71.09
61474;BME280;53694;49.784;30.150;2024-02-14T02:33:04;99121.63;;;11.34;71.09
61474;BME280;53694;49.784;30.150;2024-02-14T02:34:05;99127.91;;;11.31;71.30
61474;BME280;53694;49.784;30.150;2024-02-14T02:35:07;99120.80;;;11.26;71.38
61474;BME280;53694;49.784;30.150;2024-02-14T02:36:09;99118.80;;;11.23;71.78
61474;BME280;53694;49.784;30.150;2024-02-14T02:37:13;99131.02;;;11.29;72.08
61474;BME280;53694;49.784;30.150;2024-02-14T02:38:15;99133.45;;;11.34;71.53
61474;BME280;53694;49.784;30.150;2024-02-14T02:39:17;99126.34;;;11.33;71.31
61474;BME280;53694;49.784;30.150;2024-02-14T02:40:19;99134.20;;;11.31;71.15
61474;BME280;53694;49.784;30.150;2024-02-14T02:41:20;99126.66;;;11.24;71.39
61474;BME280;53694;49.784;30.150;2024-02-14T02:42:22;99129.41;;;11.24;71.76
61474;BME280;53694;49.784;30.150;2024-02-14T02:43:23;99136.86;;;11.24;71.51
61474;BME280;53694;49.784;30.150;2024-02-14T02:44:25;99139.57;;;11.20;71.52
61474;BME280;53694;49.784;30.150;2024-02-14T02:45:26;99135.29;;;11.23;72.01
61474;BME280;53694;49.784;30.150;2024-02-14T02:46:28;99133.41;;;11.31;72.01
61474;BME280;53694;49.784;30.150;2024-02-14T02:47:29;99140.52;;;11.35;71.36
61474;BME280;53694;49.784;30.150;2024-02-14T02:48:31;99141.70;;;11.38;71.64
61474;BME280;53694;49.784;30.150;2024-02-14T02:49:32;99143.35;;;11.46;71.01
61474;BME280;53694;49.784;30.150;2024-02-14T02:50:34;99140.56;;;11.42;70.67
61474;BME280;53694;49.784;30.150;2024-02-14T02:51:35;99141.34;;;11.39;71.13
61474;BME280;53694;49.784;30.150;2024-02-14T02:52:37;99143.31;;;11.42;71.08
61474;BME280;53694;49.784;30.150;2024-02-14T02:53:38;99142.17;;;11.43;70.91
61474;BME280;53694;49.784;30.150;2024-02-14T02:54:40;99144.53;;;11.45;70.90
61474;BME280;53694;49.784;30.150;2024-02-14T02:55:41;99142.17;;;11.43;70.88
61474;BME280;53694;49.784;30.150;2024-02-14T02:56:43;99142.17;;;11.43;70.88
61474;BME280;53694;49.784;30.150;2024-02-14T02:57:44;99151.56;;;11.42;70.53
61474;BME280;53694;49.784;30.150;2024-02-14T02:58:46;99143.31;;;11.39;70.67
61474;BME280;53694;49.784;30.150;2024-02-14T02:59:48;99152.30;;;11.36;70.82
61474;BME280;53694;49.784;30.150;2024-02-14T03:00:49;99151.09;;;11.33;71.02
61474;BME280;53694;49.784;30.150;2024-02-14T03:01:51;99146.77;;;11.32;71.20
61474;BME280;53694;49.784;30.150;2024-02-14T03:02:52;99143.62;;;11.30;71.07
61474;BME280;53694;49.784;30.150;2024-02-14T03:03:53;99158.51;;;11.29;71.12
61474;BME280;53694;49.784;30.150;2024-02-14T03:04:55;99151.44;;;11.28;71.32
61474;BME280;53694;49.784;30.150;2024-02-14T03:05:56;99148.30;;;11.30;71.40
61474;BME280;53694;49.784;30.150;2024-02-14T03:06:58;99153.80;;;11.30;71.31
61474;BME280;53694;49.784;30.150;2024-02-14T03:08:00;99151.44;;;11.28;71.37
61474;BME280;53694;49.784;30.150;2024-02-14T03:09:01;99156.55;;;11.30;71.52
61474;BME280;53694;49.784;30.150;2024-02-14T03:10:03;99156.22;;;11.35;71.56
61474;BME280;53694;49.784;30.150;2024-02-14T03:11:05;99152.70;;;11.38;71.40
61474;BME280;53694;49.784;30.150;2024-02-14T03:12:07;99151.55;;;11.39;71.13
61474;BME280;53694;49.784;30.150;2024-02-14T03:13:09;99149.59;;;11.39;70.86
61474;BME280;53694;49.784;30.150;2024-02-14T03:14:10;99155.45;;;11.38;71.18
61474;BME280;53694;49.784;30.150;2024-02-14T03:15:12;99156.66;;;11.40;71.12
61474;BME280;53694;49.784;30.150;2024-02-14T03:16:13;99156.66;;;11.40;71.08
61474;BME280;53694;49.784;30.150;2024-02-14T03:17:15;99155.48;;;11.41;71.20
61474;BME280;53694;49.784;30.150;2024-02-14T03:18:16;99164.20;;;11.47;70.95
61474;BME280;53694;49.784;30.150;2024-02-14T03:19:18;99154.78;;;11.48;70.79
61474;BME280;53694;49.784;30.150;2024-02-14T03:20:19;99162.59;;;11.46;70.67
61474;BME280;53694;49.784;30.150;2024-02-14T03:21:21;99160.23;;;11.44;70.58
61474;BME280;53694;49.784;30.150;2024-02-14T03:22:22;99160.98;;;11.41;70.63
61474;BME280;53694;49.784;30.150;2024-02-14T03:23:24;99164.13;;;11.40;70.64
61474;BME280;53694;49.784;30.150;2024-02-14T03:24:25;99171.59;;;11.39;70.84
61474;BME280;53694;49.784;30.150;2024-02-14T03:25:27;99163.70;;;11.38;70.72
61474;BME280;53694;49.784;30.150;2024-02-14T03:26:29;99171.16;;;11.37;70.83
61474;BME280;53694;49.784;30.150;2024-02-14T03:27:30;99169.58;;;11.36;70.98
61474;BME280;53694;49.784;30.150;2024-02-14T03:28:31;99170.37;;;11.37;71.11
61474;BME280;53694;49.784;30.150;2024-02-14T03:29:33;99170.41;;;11.40;70.94
61474;BME280;53694;49.784;30.150;2024-02-14T03:30:35;99165.70;;;11.41;70.92
61474;BME280;53694;49.784;30.150;2024-02-14T03:31:36;99175.95;;;11.44;70.68
61474;BME280;53694;49.784;30.150;2024-02-14T03:32:38;99174.34;;;11.39;70.64
61474;BME280;53694;49.784;30.150;2024-02-14T03:33:39;99168.41;;;11.37;70.99
61474;BME280;53694;49.784;30.150;2024-02-14T03:34:41;99178.27;;;11.42;71.02
61474;BME280;53694;49.784;30.150;2024-02-14T03:35:42;99178.31;;;11.45;70.71
61474;BME280;53694;49.784;30.150;2024-02-14T03:36:44;99176.73;;;11.44;70.37
61474;BME280;53694;49.784;30.150;2024-02-14T03:37:46;99179.88;;;11.43;70.15
61474;BME280;53694;49.784;30.150;2024-02-14T03:38:48;99182.23;;;11.44;70.33
61474;BME280;53694;49.784;30.150;2024-02-14T03:39:49;99185.37;;;11.43;70.29
61474;BME280;53694;49.784;30.150;2024-02-14T03:40:51;99184.20;;;11.44;70.60
61474;BME280;53694;49.784;30.150;2024-02-14T03:41:52;99188.56;;;11.48;70.93
61474;BME280;53694;49.784;30.150;2024-02-14T03:42:53;99186.25;;;11.54;70.05
61474;BME280;53694;49.784;30.150;2024-02-14T03:43:55;99183.89;;;11.53;69.32
61474;BME280;53694;49.784;30.150;2024-02-14T03:44:56;99181.89;;;11.49;69.18
61474;BME280;53694;49.784;30.150;2024-02-14T03:45:58;99185.38;;;11.46;69.12
61474;BME280;53694;49.784;30.150;2024-02-14T03:46:59;99186.48;;;11.38;69.40
61474;BME280;53694;49.784;30.150;2024-02-14T03:48:01;99229.48;;;11.20;69.47
61474;BME280;53694;49.784;30.150;2024-02-14T03:49:02;99180.45;;;10.88;70.17
61474;BME280;53694;49.784;30.150;2024-02-14T03:50:05;99181.94;;;10.52;71.26
61474;BME280;53694;49.784;30.150;2024-02-14T03:51:07;99192.00;;;10.18;72.35
61474;BME280;53694;49.784;30.150;2024-02-14T03:52:08;99195.05;;;9.86;73.50
61474;BME280;53694;49.784;30.150;2024-02-14T03:53:10;99194.79;;;9.72;74.49
61474;BME280;53694;49.784;30.150;2024-02-14T03:54:11;99199.48;;;9.71;74.88
61474;BME280;53694;49.784;30.150;2024-02-14T03:55:13;99196.81;;;9.75;74.85
61474;BME280;53694;49.784;30.150;2024-02-14T03:56:15;99194.20;;;9.82;74.83
61474;BME280;53694;49.784;30.150;2024-02-14T03:57:17;99200.69;;;9.97;74.89
61474;BME280;53694;49.784;30.150;2024-02-14T03:58:18;99196.64;;;10.14;74.56
61474;BME280;53694;49.784;30.150;2024-02-14T03:59:20;99190.98;;;10.26;73.40
61474;BME280;53694;49.784;30.150;2024-02-14T04:00:21;99195.88;;;10.40;72.86
61474;BME280;53694;49.784;30.150;2024-02-14T04:01:23;99195.88;;;10.40;72.86
61474;BME280;53694;49.784;30.150;2024-02-14T04:02:24;99192.02;;;10.44;72.45
61474;BME280;53694;49.784;30.150;2024-02-14T04:03:26;99195.94;;;10.43;71.97
61474;BME280;53694;49.784;30.150;2024-02-14T04:04:27;99200.17;;;10.37;71.83
61474;BME280;53694;49.784;30.150;2024-02-14T04:05:29;99200.96;;;10.38;72.30
61474;BME280;53694;49.784;30.150;2024-02-14T04:06:30;99202.21;;;10.44;71.88
61474;BME280;53694;49.784;30.150;2024-02-14T04:07:31;99198.35;;;10.48;72.05
61474;BME280;53694;49.784;30.150;2024-02-14T04:08:33;99201.64;;;10.58;72.26
61474;BME280;53694;49.784;30.150;2024-02-14T04:09:35;99205.30;;;10.69;71.81
61474;BME280;53694;49.784;30.150;2024-02-14T04:10:37;99211.25;;;10.74;71.18
61474;BME280;53694;49.784;30.150;2024-02-14T04:11:39;99206.25;;;10.80;70.89
61474;BME280;53694;49.784;30.150;2024-02-14T04:12:41;99207.42;;;10.79;70.30
61474;BME280;53694;49.784;30.150;2024-02-14T04:13:42;99216.06;;;10.81;70.64
61474;BME280;53694;49.784;30.150;2024-02-14T04:14:43;99216.06;;;10.81;70.17
61474;BME280;53694;49.784;30.150;2024-02-14T04:15:45;99216.06;;;10.81;70.35
61474;BME280;53694;49.784;30.150;2024-02-14T04:16:47;99222.78;;;10.84;70.12
61474;BME280;53694;49.784;30.150;2024-02-14T04:17:48;99216.90;;;10.85;70.19
61474;BME280;53694;49.784;30.150;2024-02-14T04:18:50;99222.06;;;10.90;70.18
61474;BME280;53694;49.784;30.150;2024-02-14T04:19:51;99220.10;;;10.91;69.60
61474;BME280;53694;49.784;30.150;2024-02-14T04:20:52;99218.14;;;10.91;69.13
61474;BME280;53694;49.784;30.150;2024-02-14T04:21:54;99227.15;;;10.88;69.37
61474;BME280;53694;49.784;30.150;2024-02-14T04:22:56;99225.52;;;10.84;69.53
61474;BME280;53694;49.784;30.150;2024-02-14T04:23:57;99227.61;;;10.64;69.77
61474;BME280;53694;49.784;30.150;2024-02-14T04:24:58;99233.05;;;10.34;70.33
61474;BME280;53694;49.784;30.150;2024-02-14T04:26:00;99234.84;;;9.99;71.35
61474;BME280;53694;49.784;30.150;2024-02-14T04:27:02;99238.11;;;9.63;72.29
61474;BME280;53694;49.784;30.150;2024-02-14T04:28:04;99236.72;;;9.30;73.45
61474;BME280;53694;49.784;30.150;2024-02-14T04:29:05;99237.61;;;9.15;74.47
61474;BME280;53694;49.784;30.150;2024-02-14T04:30:07;99236.37;;;9.12;74.92
61474;BME280;53694;49.784;30.150;2024-02-14T04:31:09;99238.77;;;9.14;75.12
61474;BME280;53694;49.784;30.150;2024-02-14T04:32:10;99232.28;;;9.22;75.00
61474;BME280;53694;49.784;30.150;2024-02-14T04:33:12;99247.26;;;9.28;74.78
61474;BME280;53694;49.784;30.150;2024-02-14T04:34:13;99238.88;;;9.40;74.76
61474;BME280;53694;49.784;30.150;2024-02-14T04:35:15;99241.09;;;9.54;74.48
61474;BME280;53694;49.784;30.150;2024-02-14T04:36:16;99232.33;;;9.68;73.83
61474;BME280;53694;49.784;30.150;2024-02-14T04:37:18;99236.78;;;9.76;73.52
61474;BME280;53694;49.784;30.150;2024-02-14T04:38:19;99240.51;;;9.87;73.04
61474;BME280;53694;49.784;30.150;2024-02-14T04:39:21;99241.43;;;9.95;72.55
61474;BME280;53694;49.784;30.150;2024-02-14T04:40:22;99245.50;;;10.05;72.47
61474;BME280;53694;49.784;30.150;2024-02-14T04:41:24;99248.05;;;10.17;72.21
61474;BME280;53694;49.784;30.150;2024-02-14T04:42:25;99245.87;;;10.26;71.66
61474;BME280;53694;49.784;30.150;2024-02-14T04:43:27;99242.02;;;10.31;71.03
61474;BME280;53694;49.784;30.150;2024-02-14T04:44:29;99255.80;;;10.34;70.80
61474;BME280;53694;49.784;30.150;2024-02-14T04:45:30;99248.41;;;10.38;70.50
61474;BME280;53694;49.784;30.150;2024-02-14T04:46:32;99251.95;;;10.39;70.25
61474;BME280;53694;49.784;30.150;2024-02-14T04:47:34;99255.54;;;10.43;69.59
61474;BME280;53694;49.784;30.150;2024-02-14T04:48:36;99250.72;;;10.36;69.73
61474;BME280;53694;49.784;30.150;2024-02-14T04:49:37;99259.33;;;10.35;70.17
61474;BME280;53694;49.784;30.150;2024-02-14T04:50:39;99259.21;;;10.28;70.23
61474;BME280;53694;49.784;30.150;2024-02-14T04:51:41;99255.44;;;10.13;70.32
61474;BME280;53694;49.784;30.150;2024-02-14T04:52:42;99263.69;;;9.90;71.13
61474;BME280;53694;49.784;30.150;2024-02-14T04:53:44;99263.06;;;9.77;71.68
61474;BME280;53694;49.784;30.150;2024-02-14T04:54:45;99266.84;;;9.69;71.72
61474;BME280;53694;49.784;30.150;2024-02-14T04:55:47;99271.46;;;9.65;72.33
61474;BME280;53694;49.784;30.150;2024-02-14T04:56:48;99271.46;;;9.65;72.33
61474;BME280;53694;49.784;30.150;2024-02-14T04:57:50;99273.17;;;9.73;72.41
61474;BME280;53694;49.784;30.150;2024-02-14T04:58:55;99278.46;;;9.85;72.44
61474;BME280;53694;49.784;30.150;2024-02-14T04:59:56;99280.24;;;9.97;71.90
61474;BME280;53694;49.784;30.150;2024-02-14T05:00:58;99285.92;;;10.08;71.76
61474;BME280;53694;49.784;30.150;2024-02-14T05:01:59;99283.00;;;10.20;71.59
61474;BME280;53694;49.784;30.150;2024-02-14T05:03:01;99292.21;;;10.31;71.05
61474;BME280;53694;49.784;30.150;2024-02-14T05:04:03;99294.70;;;10.40;70.03
61474;BME280;53694;49.784;30.150;2024-02-14T05:05:05;99293.97;;;10.43;69.86
61474;BME280;53694;49.784;30.150;2024-02-14T05:06:07;99297.16;;;10.45;69.41
61474;BME280;53694;49.784;30.150;2024-02-14T05:07:08;99292.45;;;10.45;69.03
61474;BME280;53694;49.784;30.150;2024-02-14T05:08:10;99294.64;;;10.36;68.85
61474;BME280;53694;49.784;30.150;2024-02-14T05:09:11;99284.04;;;10.12;69.12
61474;BME280;53694;49.784;30.150;2024-02-14T05:10:13;99283.77;;;9.74;69.83
61474;BME280;53694;49.784;30.150;2024-02-14T05:11:14;99277.10;;;9.33;71.15
61474;BME280;53694;49.784;30.150;2024-02-14T05:12:16;99270.33;;;8.88;72.58
61474;BME280;53694;49.784;30.150;2024-02-14T05:13:17;99269.37;;;8.45;74.22
61474;BME280;53694;49.784;30.150;2024-02-14T05:14:19;99273.25;;;8.13;75.70
61474;BME280;53694;49.784;30.150;2024-02-14T05:15:21;99271.66;;;7.96;76.87
61474;BME280;53694;49.784;30.150;2024-02-14T05:16:22;99273.14;;;7.93;77.67
61474;BME280;53694;49.784;30.150;2024-02-14T05:17:24;99274.91;;;8.01;77.77
61474;BME280;53694;49.784;30.150;2024-02-14T05:18:26;99280.76;;;8.16;77.80
61474;BME280;53694;49.784;30.150;2024-02-14T05:19:27;99271.81;;;8.35;77.47
61474;BME280;53694;49.784;30.150;2024-02-14T05:20:28;99276.94;;;8.52;76.94
61474;BME280;53694;49.784;30.150;2024-02-14T05:21:30;99286.70;;;8.69;76.21
61474;BME280;53694;49.784;30.150;2024-02-14T05:22:31;99281.98;;;8.85;75.95